Woonsocket, Rhode Island
Current Conditions -  °F | °C
As of 10:35 AM on Saturday 25 Oct 2014 (Local Time) from KSFZ Reporting Station
Clear Clear  
Wind Chill: 55°   Ceiling: Unl
Heat Index: 55°   Visibility: 10mi
Dew Point: 37°   Wind: 10mph
Humidity: 51%   Direction: 280°W
Pressure: 29.75"   Gusts: NA
Location:  42°N, 71.51°W
Report Text: KSFZ 251435Z 28009KT 10SM CLR 13/03 A2975 RMK AO1
Loading
Personal Weather Stations






























Interactive Weather Map
Tropical Storm Tracking
New forecast layout! Learn more

10-Day Weather Forecast

Advertisements
Track Severe Weather on mobile